Time;durP1;ratioP1;P1;durP2;ratioP2;P2;SDS_P1;SDS_P2;PMS_P1;PMS_P2;Temp;Humidity;BMP_temperature;BMP_pressure;BME280_temperature;BME280_humidity;BME280_pressure;Samples;Min_cycle;Max_cycle;Signal;HPM_P1;HPM_P2
2024/04/08 00:01:49;;;;;;;5.45;2.40;;;15.40;99.90;;;;;;4829063;29;20641;-85
2024/04/08 00:04:14;;;;;;;5.75;1.92;;;15.60;99.90;;;;;;4829372;29;20659;-86
2024/04/08 00:06:40;;;;;;;2.92;1.67;;;15.50;99.90;;;;;;4829119;29;20192;-85
2024/04/08 00:09:05;;;;;;;4.00;1.80;;;15.50;99.90;;;;;;4829264;29;20185;-85
2024/04/08 00:11:31;;;;;;;4.78;1.95;;;15.40;99.90;;;;;;4828456;29;20189;-84
2024/04/08 00:13:57;;;;;;;6.18;1.65;;;15.40;99.90;;;;;;4829142;29;20533;-85
2024/04/08 00:16:23;;;;;;;4.03;1.70;;;15.40;99.90;;;;;;4844176;29;20185;-85
2024/04/08 00:18:50;;;;;;;3.58;1.60;;;15.40;99.90;;;;;;4844398;29;20197;-84
2024/04/08 00:21:16;;;;;;;4.43;1.60;;;15.40;99.90;;;;;;4829052;29;20424;-84
2024/04/08 00:23:44;;;;;;;5.90;1.95;;;15.30;99.90;;;;;;4828951;29;20220;-85
2024/04/08 00:26:10;;;;;;;2.65;1.20;;;15.40;99.90;;;;;;4828510;29;20196;-83
2024/04/08 00:28:39;;;;;;;2.20;1.15;;;15.30;99.90;;;;;;4828770;29;20237;-85
2024/04/08 00:31:06;;;;;;;4.03;1.23;;;15.20;99.90;;;;;;4828922;29;20233;-85
2024/04/08 00:33:33;;;;;;;3.95;1.40;;;15.20;99.90;;;;;;4828584;29;20212;-84
2024/04/08 00:35:59;;;;;;;3.40;1.15;;;15.30;99.90;;;;;;4828735;29;20193;-85
2024/04/08 00:38:27;;;;;;;2.80;1.30;;;15.20;99.90;;;;;;4845113;29;20185;-84
2024/04/08 00:40:52;;;;;;;3.65;1.42;;;15.20;99.90;;;;;;4845040;29;20189;-84
2024/04/08 00:43:18;;;;;;;5.75;1.25;;;15.20;99.90;;;;;;4845112;29;20209;-84
2024/04/08 00:45:48;;;;;;;3.28;1.35;;;15.10;99.90;;;;;;4845069;29;20169;-84
2024/04/08 00:48:15;;;;;;;3.92;1.08;;;15.10;99.90;;;;;;4844998;29;20192;-85
2024/04/08 00:50:46;;;;;;;8.10;1.48;;;15.10;99.90;;;;;;4828481;29;20193;-84
2024/04/08 00:53:13;;;;;;;2.90;1.15;;;15.00;99.90;;;;;;4828613;29;20188;-84
2024/04/08 00:55:41;;;;;;;3.47;1.20;;;15.00;99.90;;;;;;4828055;29;20269;-86
2024/04/08 00:58:07;;;;;;;5.50;1.30;;;15.00;99.90;;;;;;4828379;29;20189;-87
2024/04/08 01:00:33;;;;;;;4.20;1.50;;;14.90;99.90;;;;;;4844796;29;20184;-86
2024/04/08 01:03:02;;;;;;;8.40;2.25;;;14.90;99.90;;;;;;4828321;29;20210;-86
2024/04/08 01:05:28;;;;;;;3.92;1.40;;;14.90;99.90;;;;;;4844705;29;20177;-85
2024/04/08 01:07:54;;;;;;;3.00;1.40;;;14.80;99.90;;;;;;4828151;29;20534;-85
2024/04/08 01:10:20;;;;;;;6.88;1.40;;;14.80;99.90;;;;;;4844390;29;20202;-86
2024/04/08 01:12:46;;;;;;;4.00;1.50;;;14.70;99.90;;;;;;4843539;29;20228;-84
2024/04/08 01:15:13;;;;;;;3.17;1.55;;;14.70;99.90;;;;;;4844583;29;20209;-85
2024/04/08 01:17:38;;;;;;;7.75;1.60;;;14.60;99.90;;;;;;4844463;29;20185;-83
2024/04/08 01:20:04;;;;;;;4.25;1.55;;;14.60;99.90;;;;;;4843344;29;20284;-83
2024/04/08 01:22:32;;;;;;;3.97;1.55;;;14.50;99.90;;;;;;4844496;29;20208;-83
2024/04/08 01:24:58;;;;;;;3.05;1.40;;;14.50;99.90;;;;;;4827864;29;20197;-83
2024/04/08 01:27:24;;;;;;;6.60;1.92;;;14.60;99.90;;;;;;4842597;29;20327;-84
2024/04/08 01:29:49;;;;;;;3.83;1.30;;;14.60;99.90;;;;;;4842909;29;20330;-83
2024/04/08 01:32:15;;;;;;;7.47;1.75;;;14.60;99.90;;;;;;4843066;29;20200;-83
2024/04/08 01:34:41;;;;;;;6.72;2.05;;;14.60;99.90;;;;;;4828120;29;20185;-83
2024/04/08 01:37:06;;;;;;;4.45;1.30;;;14.50;99.90;;;;;;4844131;29;20181;-83
2024/04/08 01:39:32;;;;;;;2.83;1.40;;;14.50;99.90;;;;;;4827784;29;20181;-84
2024/04/08 01:41:57;;;;;;;7.65;1.63;;;14.50;99.90;;;;;;4843708;29;20169;-83
2024/04/08 01:44:23;;;;;;;5.40;1.55;;;14.40;99.90;;;;;;4844088;29;20189;-83
2024/04/08 01:46:48;;;;;;;4.72;1.80;;;14.40;99.90;;;;;;4843843;29;20177;-85
2024/04/08 01:49:14;;;;;;;6.55;1.52;;;14.40;99.90;;;;;;4842930;29;20640;-83
2024/04/08 01:51:40;;;;;;;6.15;1.50;;;14.30;99.90;;;;;;4843928;29;20170;-85
2024/04/08 01:55:44;;;;;;;4.63;1.52;;;14.30;99.90;;;;;;5508542;25;20593;-85
2024/04/08 01:58:10;;;;;;;4.50;1.75;;;14.20;99.90;;;;;;5508959;26;20220;-86
2024/04/08 02:00:36;;;;;;;6.25;1.77;;;14.20;99.90;;;;;;5509179;26;20232;-85
2024/04/08 02:03:02;;;;;;;5.53;1.48;;;14.10;99.90;;;;;;5509165;26;20220;-84
2024/04/08 02:05:27;;;;;;;2.75;1.50;;;14.20;99.90;;;;;;5508960;26;20274;-85
2024/04/08 02:07:53;;;;;;;3.58;1.33;;;14.30;99.90;;;;;;5476800;26;20224;-85
2024/04/08 02:10:19;;;;;;;5.20;1.70;;;14.30;99.90;;;;;;5508280;25;20220;-86
2024/04/08 02:12:45;;;;;;;7.55;1.80;;;14.50;99.90;;;;;;5476633;26;20335;-86
2024/04/08 02:15:11;;;;;;;4.15;1.58;;;14.40;99.90;;;;;;5476189;26;20561;-86
2024/04/08 02:17:37;;;;;;;5.13;1.73;;;14.40;99.90;;;;;;5476374;26;20274;-86
2024/04/08 02:20:03;;;;;;;2.30;1.17;;;14.30;99.90;;;;;;5508629;26;20671;-85
2024/04/08 02:22:29;;;;;;;6.93;2.00;;;14.30;99.90;;;;;;5509023;26;20329;-84
2024/04/08 02:24:54;;;;;;;3.58;1.38;;;14.30;99.90;;;;;;5508755;26;20220;-86
2024/04/08 02:27:20;;;;;;;3.72;1.45;;;14.20;99.90;;;;;;5476016;26;20228;-86
2024/04/08 02:29:46;;;;;;;3.33;1.75;;;14.20;99.90;;;;;;5477245;26;20671;-85
2024/04/08 02:32:12;;;;;;;2.88;1.30;;;14.30;99.90;;;;;;5506856;26;20321;-86
2024/04/08 02:34:37;;;;;;;3.70;1.50;;;14.30;99.90;;;;;;5506155;26;20228;-85
2024/04/08 02:37:03;;;;;;;2.80;1.40;;;14.30;99.90;;;;;;5480740;26;20275;-84
2024/04/08 02:39:29;;;;;;;5.55;1.90;;;14.20;99.90;;;;;;5476179;26;20561;-86
2024/04/08 02:41:55;;;;;;;5.00;1.63;;;14.20;99.90;;;;;;5508253;26;20254;-85
2024/04/08 02:44:21;;;;;;;4.40;1.70;;;14.10;99.90;;;;;;5508302;26;20224;-85
2024/04/08 02:46:46;;;;;;;2.65;1.40;;;14.10;99.90;;;;;;5476116;26;20221;-86
2024/04/08 02:49:12;;;;;;;4.10;1.80;;;14.10;99.90;;;;;;5475865;26;20228;-85
2024/04/08 02:51:38;;;;;;;3.78;1.83;;;14.10;99.90;;;;;;5508410;26;20217;-86
2024/04/08 02:54:03;;;;;;;4.50;1.50;;;14.10;99.90;;;;;;5475681;26;20233;-85
2024/04/08 02:56:29;;;;;;;4.63;1.60;;;14.00;99.90;;;;;;5475632;26;20698;-85
2024/04/08 02:58:55;;;;;;;4.68;1.52;;;13.90;99.90;;;;;;5475866;26;20224;-86
2024/04/08 03:01:20;;;;;;;4.55;1.88;;;13.90;99.90;;;;;;5475546;26;20236;-84
2024/04/08 03:03:46;;;;;;;5.78;1.85;;;13.90;99.90;;;;;;5508232;26;20620;-85
2024/04/08 03:06:14;;;;;;;4.55;1.77;;;13.90;99.90;;;;;;5496283;26;20225;-84
2024/04/08 03:08:41;;;;;;;3.78;1.50;;;14.00;99.90;;;;;;5492409;26;20229;-87
2024/04/08 03:11:08;;;;;;;3.38;1.25;;;14.10;99.90;;;;;;5492224;26;20264;-85
2024/04/08 03:13:36;;;;;;;2.90;1.52;;;14.00;99.90;;;;;;5492380;26;20224;-86
2024/04/08 03:16:01;;;;;;;6.25;1.63;;;14.10;99.90;;;;;;5492572;26;20213;-84
2024/04/08 03:18:28;;;;;;;3.03;1.63;;;14.10;99.90;;;;;;5459697;26;20229;-84
2024/04/08 03:20:58;;;;;;;7.75;1.50;;;14.10;99.90;;;;;;5491951;26;20217;-84
2024/04/08 03:23:24;;;;;;;4.13;1.70;;;14.10;99.90;;;;;;5492108;26;20271;-83
2024/04/08 03:26:00;;;;;;;4.32;1.48;;;14.10;99.90;;;;;;5459470;26;20297;-84
2024/04/08 03:28:27;;;;;;;5.78;1.60;;;14.10;99.90;;;;;;5491983;26;20251;-84
2024/04/08 03:30:53;;;;;;;4.85;1.42;;;14.10;99.90;;;;;;5459745;26;20241;-85
2024/04/08 03:33:23;;;;;;;5.03;1.40;;;14.00;99.90;;;;;;5491078;26;20241;-84
2024/04/08 03:35:50;;;;;;;2.88;1.50;;;14.00;99.90;;;;;;5491660;26;20272;-83
2024/04/08 03:38:16;;;;;;;3.75;1.98;;;13.90;99.90;;;;;;5459146;26;20272;-83
2024/04/08 03:40:42;;;;;;;5.45;1.95;;;13.90;99.90;;;;;;5459311;26;20264;-83
2024/04/08 03:43:09;;;;;;;3.55;1.55;;;14.00;99.90;;;;;;5459349;26;20252;-84
2024/04/08 03:45:35;;;;;;;4.45;1.60;;;14.00;99.90;;;;;;5459303;26;20268;-84
2024/04/08 03:48:01;;;;;;;4.15;2.20;;;14.00;99.90;;;;;;5458256;26;20446;-83
2024/04/08 03:50:27;;;;;;;7.60;2.05;;;14.00;99.90;;;;;;5459236;26;20237;-83
2024/04/08 03:52:53;;;;;;;3.05;1.40;;;14.00;99.90;;;;;;5491711;26;20591;-84
2024/04/08 03:55:29;;;;;;;5.63;1.70;;;14.00;99.90;;;;;;5491098;26;20233;-83
2024/04/08 03:57:54;;;;;;;3.28;1.60;;;13.90;99.90;;;;;;5491594;26;20221;-84
2024/04/08 04:00:20;;;;;;;4.35;1.63;;;13.80;99.90;;;;;;5459364;26;20237;-84
2024/04/08 04:02:46;;;;;;;3.92;1.90;;;13.80;99.90;;;;;;5490110;26;20260;-83
2024/04/08 04:05:12;;;;;;;4.15;1.90;;;13.80;99.90;;;;;;5491359;26;20225;-84
2024/04/08 04:07:41;;;;;;;4.70;1.70;;;13.80;99.90;;;;;;5491131;26;20225;-84
2024/04/08 04:10:08;;;;;;;4.28;1.50;;;13.80;99.90;;;;;;5459224;26;20221;-84
2024/04/08 04:12:39;;;;;;;3.60;1.55;;;13.70;99.90;;;;;;5459163;26;20263;-84
2024/04/08 04:15:05;;;;;;;4.05;2.00;;;13.70;99.90;;;;;;5490971;26;20276;-83
2024/04/08 04:17:32;;;;;;;6.30;2.00;;;13.60;99.90;;;;;;5458870;26;20312;-84
2024/04/08 04:19:57;;;;;;;3.90;1.55;;;13.70;99.90;;;;;;5459075;26;20229;-82
2024/04/08 04:22:23;;;;;;;3.47;1.73;;;13.60;99.90;;;;;;5491282;26;20221;-84
2024/04/08 04:24:49;;;;;;;4.55;2.25;;;13.60;99.90;;;;;;5458877;26;20304;-84
2024/04/08 04:27:14;;;;;;;7.05;1.80;;;13.60;99.90;;;;;;5490994;26;20233;-83
2024/04/08 04:29:40;;;;;;;5.63;2.20;;;13.60;99.90;;;;;;5458785;26;20233;-83
2024/04/08 04:32:06;;;;;;;3.25;1.90;;;13.60;99.90;;;;;;5491039;26;20217;-83
2024/04/08 04:34:31;;;;;;;2.70;1.50;;;13.60;99.90;;;;;;5458495;26;20255;-81
2024/04/08 04:36:57;;;;;;;4.22;1.65;;;13.60;99.90;;;;;;5458753;26;20250;-83
2024/04/08 04:39:23;;;;;;;4.82;1.60;;;13.50;99.90;;;;;;5458505;26;20647;-84
2024/04/08 04:41:53;;;;;;;5.28;1.55;;;13.60;99.90;;;;;;5490599;26;20256;-83
2024/04/08 04:44:19;;;;;;;4.18;1.58;;;13.50;99.90;;;;;;5458513;26;20233;-84
2024/04/08 04:46:45;;;;;;;5.82;1.52;;;13.50;99.90;;;;;;5457806;26;20275;-85
2024/04/08 04:49:11;;;;;;;4.20;1.83;;;13.50;99.90;;;;;;5490230;26;20691;-84
2024/04/08 04:51:37;;;;;;;7.15;1.60;;;13.60;99.90;;;;;;5519734;26;20236;-85
2024/04/08 04:54:04;;;;;;;4.57;1.60;;;13.60;99.90;;;;;;5519361;26;20344;-84
2024/04/08 04:56:29;;;;;;;4.05;1.40;;;13.60;99.90;;;;;;5490420;26;20322;-84
2024/04/08 04:58:55;;;;;;;4.38;1.42;;;13.60;99.90;;;;;;5519498;26;20224;-85
2024/04/08 05:01:20;;;;;;;5.78;1.58;;;13.60;99.90;;;;;;5490489;26;20221;-84
2024/04/08 05:03:47;;;;;;;5.03;1.85;;;13.60;99.90;;;;;;5457427;26;20816;-85
2024/04/08 05:06:14;;;;;;;3.75;1.77;;;13.60;99.90;;;;;;5490364;26;20218;-84
2024/04/08 05:08:40;;;;;;;3.13;1.50;;;13.60;99.90;;;;;;5458372;26;20561;-84
2024/04/08 05:11:06;;;;;;;6.47;1.63;;;13.60;99.90;;;;;;5458352;26;20579;-84
2024/04/08 05:13:32;;;;;;;6.75;1.73;;;13.60;99.90;;;;;;5490562;26;20722;-84
2024/04/08 05:15:59;;;;;;;3.05;1.38;;;13.60;99.90;;;;;;5490395;26;20271;-84
2024/04/08 05:18:25;;;;;;;3.33;1.45;;;13.60;99.90;;;;;;5471233;26;20236;-84
2024/04/08 05:20:51;;;;;;;3.88;1.17;;;13.60;99.90;;;;;;5490438;26;20288;-84
2024/04/08 05:23:17;;;;;;;4.15;1.63;;;13.70;99.90;;;;;;5488440;26;20263;-84
2024/04/08 05:25:44;;;;;;;5.60;1.58;;;13.70;99.90;;;;;;5488417;26;20733;-83
2024/04/08 05:28:09;;;;;;;2.88;1.50;;;13.70;99.90;;;;;;5487925;26;20228;-85
2024/04/08 05:30:36;;;;;;;3.35;1.80;;;13.70;99.90;;;;;;5487222;26;20237;-84
2024/04/08 05:33:01;;;;;;;4.50;1.90;;;13.60;99.90;;;;;;5489890;26;20338;-83
2024/04/08 05:35:27;;;;;;;4.25;1.60;;;13.60;99.90;;;;;;5490051;26;20229;-84
2024/04/08 05:37:52;;;;;;;7.22;1.85;;;13.60;99.90;;;;;;5458015;26;20308;-84
2024/04/08 05:40:18;;;;;;;3.67;1.90;;;13.60;99.90;;;;;;5457848;26;20224;-84
2024/04/08 05:42:44;;;;;;;5.75;1.83;;;13.60;99.90;;;;;;5490011;26;20221;-86
2024/04/08 05:45:10;;;;;;;4.93;1.75;;;13.60;99.90;;;;;;5490087;26;20225;-86
2024/04/08 05:47:37;;;;;;;4.88;2.17;;;13.60;99.90;;;;;;5490051;26;20221;-86
2024/04/08 05:50:04;;;;;;;4.22;1.75;;;13.60;99.90;;;;;;5489973;26;20228;-88
2024/04/08 05:52:31;;;;;;;4.35;1.90;;;13.60;99.90;;;;;;5458021;26;20228;-86
2024/04/08 05:54:57;;;;;;;4.88;1.65;;;13.60;99.90;;;;;;5489815;26;20267;-84
2024/04/08 05:57:24;;;;;;;5.88;1.88;;;13.60;99.90;;;;;;5450952;26;20708;-83
2024/04/08 05:59:50;;;;;;;5.20;1.70;;;13.60;99.90;;;;;;5421579;26;20720;-84
2024/04/08 06:02:16;;;;;;;4.60;1.90;;;13.60;99.90;;;;;;5423441;26;20276;-82
2024/04/08 06:04:41;;;;;;;6.35;1.92;;;13.60;99.90;;;;;;5453094;26;20677;-84
2024/04/08 06:07:10;;;;;;;5.75;2.05;;;13.50;99.90;;;;;;5481992;26;20230;-84
2024/04/08 06:09:36;;;;;;;3.38;1.70;;;13.50;99.90;;;;;;5421552;26;20262;-86
2024/04/08 06:12:01;;;;;;;4.43;1.70;;;13.60;99.90;;;;;;5451553;26;20256;-85
2024/04/08 06:14:27;;;;;;;4.28;1.70;;;13.60;99.90;;;;;;5503821;25;20576;-86
2024/04/08 06:16:53;;;;;;;4.03;1.80;;;13.60;99.90;;;;;;5459053;26;20616;-85
2024/04/08 06:19:19;;;;;;;5.78;2.00;;;13.50;99.90;;;;;;5487497;26;20233;-85
2024/04/08 06:21:45;;;;;;;4.00;1.85;;;13.50;99.90;;;;;;5487042;26;20311;-84
2024/04/08 06:24:11;;;;;;;4.35;1.92;;;13.60;99.90;;;;;;5487440;26;20237;-85
2024/04/08 06:26:37;;;;;;;3.60;1.80;;;13.60;99.90;;;;;;5487446;26;20280;-86
2024/04/08 06:29:02;;;;;;;5.18;2.47;;;13.60;99.90;;;;;;5487490;26;20639;-85
2024/04/08 06:31:30;;;;;;;4.95;2.13;;;13.60;99.90;;;;;;5478294;26;20271;-84
2024/04/08 06:33:55;;;;;;;6.32;2.08;;;13.60;99.90;;;;;;5454548;26;20750;-84
2024/04/08 06:36:24;;;;;;;6.43;2.20;;;13.60;99.90;;;;;;5455726;26;20229;-84
2024/04/08 06:38:49;;;;;;;4.40;2.17;;;13.60;99.90;;;;;;5488607;26;20746;-86
2024/04/08 06:41:15;;;;;;;4.85;2.10;;;13.70;99.90;;;;;;5458453;26;20228;-86
2024/04/08 06:43:42;;;;;;;5.55;1.90;;;13.70;99.90;;;;;;5492038;26;20703;-84
2024/04/08 06:46:08;;;;;;;5.55;1.90;;;13.70;99.90;;;;;;5460513;26;20263;-85
2024/04/08 06:48:34;;;;;;;4.35;1.90;;;13.70;99.90;;;;;;5460013;26;22040;-86
2024/04/08 06:50:59;;;;;;;4.78;1.92;;;13.80;99.90;;;;;;5485098;26;20353;-85
2024/04/08 06:53:25;;;;;;;5.00;2.05;;;13.90;99.90;;;;;;5447259;26;20240;-84
2024/04/08 06:55:51;;;;;;;5.65;1.88;;;14.10;99.90;;;;;;5509512;26;20324;-84
2024/04/08 06:58:19;;;;;;;7.50;2.10;;;14.30;99.90;;;;;;5509808;26;20263;-83
2024/04/08 07:00:48;;;;;;;4.28;1.90;;;14.40;99.90;;;;;;5513179;26;20562;-83
2024/04/08 07:03:14;;;;;;;5.38;1.98;;;14.50;99.90;;;;;;5478938;26;20253;-85
2024/04/08 07:05:41;;;;;;;2.72;1.65;;;14.50;99.90;;;;;;5473008;26;20235;-86
2024/04/08 07:08:07;;;;;;;3.67;1.60;;;14.50;99.90;;;;;;5484347;26;20245;-86
2024/04/08 07:10:35;;;;;;;5.68;1.80;;;14.50;99.90;;;;;;5467281;26;20276;-85
2024/04/08 07:13:01;;;;;;;4.93;1.88;;;14.50;99.90;;;;;;5513822;26;20711;-84
2024/04/08 07:15:27;;;;;;;5.32;2.35;;;14.50;99.90;;;;;;5477826;26;20237;-84
2024/04/08 07:17:52;;;;;;;5.55;1.90;;;14.70;99.90;;;;;;5474794;26;20708;-83
2024/04/08 07:20:18;;;;;;;4.18;1.90;;;14.80;99.90;;;;;;5517603;26;20699;-85
2024/04/08 07:22:44;;;;;;;4.75;1.90;;;14.80;99.90;;;;;;5508768;26;20232;-84
2024/04/08 07:25:09;;;;;;;6.53;1.80;;;14.90;99.90;;;;;;5516729;26;20275;-86
2024/04/08 07:27:35;;;;;;;3.88;1.80;;;15.00;99.90;;;;;;5533266;25;20256;-84
2024/04/08 07:30:04;;;;;;;4.13;2.00;;;15.00;99.90;;;;;;5473527;26;20280;-87
2024/04/08 07:32:33;;;;;;;6.93;2.45;;;15.00;99.90;;;;;;5503396;26;20236;-87
2024/04/08 07:34:58;;;;;;;5.35;1.88;;;15.10;99.90;;;;;;5476791;26;20248;-85
2024/04/08 07:37:25;;;;;;;7.35;2.40;;;15.10;99.90;;;;;;5509992;26;20280;-85
2024/04/08 07:39:51;;;;;;;5.47;2.30;;;15.10;99.90;;;;;;5544562;25;20315;-85
2024/04/08 07:42:17;;;;;;;4.78;2.15;;;15.10;99.90;;;;;;5517125;26;20228;-86
2024/04/08 07:44:43;;;;;;;3.85;1.73;;;15.20;99.90;;;;;;5493043;26;20323;-87
2024/04/08 07:47:09;;;;;;;6.97;1.75;;;15.20;99.90;;;;;;5457990;26;20712;-87
2024/04/08 07:49:35;;;;;;;4.63;1.90;;;15.30;99.90;;;;;;5517795;26;20236;-85
2024/04/08 07:52:02;;;;;;;2.50;1.70;;;15.40;99.90;;;;;;5503004;26;20240;-85
2024/04/08 07:54:29;;;;;;;5.75;1.90;;;15.50;99.90;;;;;;5461303;26;20668;-86
2024/04/08 07:56:54;;;;;;;3.88;1.88;;;15.50;99.90;;;;;;5499032;26;20229;-85
2024/04/08 07:59:20;;;;;;;4.70;2.08;;;15.60;99.90;;;;;;5474719;26;20236;-86
2024/04/08 08:01:49;;;;;;;2.95;1.70;;;15.80;99.90;;;;;;5503381;26;20769;-85
2024/04/08 08:04:15;;;;;;;3.70;1.60;;;16.00;99.90;;;;;;5506315;26;20280;-86
2024/04/08 08:06:41;;;;;;;6.80;1.90;;;16.10;99.90;;;;;;5512430;26;20574;-85
2024/04/08 08:09:07;;;;;;;5.63;2.08;;;16.20;99.90;;;;;;5482692;26;20252;-85
2024/04/08 08:11:33;;;;;;;5.63;1.90;;;16.30;99.90;;;;;;5525254;26;20291;-85
2024/04/08 08:13:59;;;;;;;4.05;2.00;;;16.30;99.90;;;;;;5476793;26;20289;-85
2024/04/08 08:16:28;;;;;;;5.97;2.10;;;16.40;99.90;;;;;;5506853;26;20345;-85
2024/04/08 08:18:54;;;;;;;4.05;1.92;;;16.50;99.90;;;;;;5518415;26;20324;-84
2024/04/08 08:21:20;;;;;;;5.78;1.95;;;16.60;99.90;;;;;;5479542;26;20285;-86
2024/04/08 08:23:46;;;;;;;3.15;1.40;;;16.60;99.90;;;;;;5470627;26;20239;-85
2024/04/08 08:26:12;;;;;;;6.32;1.95;;;16.70;99.90;;;;;;5525823;25;20260;-83
2024/04/08 08:28:38;;;;;;;8.68;1.90;;;16.80;99.90;;;;;;5504030;26;20302;-85
2024/04/08 08:31:04;;;;;;;4.82;1.70;;;17.00;99.90;;;;;;5531971;25;20233;-85
2024/04/08 08:33:30;;;;;;;5.38;1.77;;;17.00;99.90;;;;;;5506457;26;20262;-84
2024/04/08 08:35:56;;;;;;;5.90;1.80;;;17.10;99.90;;;;;;5499947;26;20236;-85
2024/04/08 08:38:22;;;;;;;5.30;2.03;;;16.90;99.90;;;;;;5535460;25;20739;-85
2024/04/08 08:41:03;;;;;;;5.40;2.15;;;16.90;99.90;;;;;;5514222;26;20811;-85
2024/04/08 08:43:30;;;;;;;4.57;1.80;;;17.00;99.90;;;;;;5461276;26;20267;-85
2024/04/08 08:45:56;;;;;;;2.83;1.58;;;17.10;99.90;;;;;;5496457;26;20345;-85
2024/04/08 08:48:22;;;;;;;5.30;2.13;;;17.10;99.90;;;;;;5469002;26;20241;-86
2024/04/08 08:50:48;;;;;;;8.48;2.17;;;17.20;99.90;;;;;;5483377;26;20263;-86
2024/04/08 08:53:16;;;;;;;6.53;1.90;;;17.20;99.90;;;;;;5481030;26;20722;-86
2024/04/08 08:55:43;;;;;;;3.63;1.80;;;17.30;99.90;;;;;;5469095;26;20252;-85
2024/04/08 08:58:14;;;;;;;7.18;2.05;;;17.40;99.90;;;;;;5470927;26;20262;-87
2024/04/08 09:00:40;;;;;;;2.78;1.95;;;17.40;99.90;;;;;;5503179;26;20538;-85
2024/04/08 09:03:13;;;;;;;8.15;2.28;;;17.50;99.90;;;;;;5530820;25;20245;-86
2024/04/08 09:05:39;;;;;;;7.18;2.08;;;17.60;99.90;;;;;;5460805;26;20237;-86
2024/04/08 09:08:05;;;;;;;4.65;1.73;;;17.60;99.90;;;;;;5504433;26;20270;-85
2024/04/08 09:10:45;;;;;;;4.18;1.77;;;17.70;99.90;;;;;;5506378;26;20271;-86
2024/04/08 09:13:26;;;;;;;5.00;1.98;;;17.70;99.90;;;;;;5511690;26;20325;-86
2024/04/08 09:15:52;;;;;;;7.10;2.20;;;17.80;99.90;;;;;;5503910;26;20227;-86
2024/04/08 09:18:19;;;;;;;5.30;2.03;;;17.90;99.90;;;;;;5504960;26;20236;-86
2024/04/08 09:20:45;;;;;;;4.28;2.22;;;18.00;99.90;;;;;;5526656;25;20239;-86
2024/04/08 09:23:11;;;;;;;6.63;1.75;;;18.10;99.90;;;;;;5554946;25;20606;-86
2024/04/08 09:25:38;;;;;;;3.88;1.70;;;18.10;99.90;;;;;;5524274;25;20245;-85
2024/04/08 09:28:04;;;;;;;7.38;2.08;;;18.20;99.90;;;;;;5494524;26;20229;-87
2024/04/08 09:30:30;;;;;;;6.57;2.22;;;18.30;99.90;;;;;;5499361;26;20251;-87
2024/04/08 09:32:56;;;;;;;3.05;2.08;;;18.40;99.90;;;;;;5521779;25;20599;-88
2024/04/08 09:35:24;;;;;;;5.15;2.38;;;18.60;99.90;;;;;;5454255;26;20237;-88
2024/04/08 09:37:54;;;;;;;5.65;2.25;;;18.80;99.90;;;;;;5454476;26;20240;-86
2024/04/08 09:40:24;;;;;;;6.53;2.28;;;18.90;99.90;;;;;;5456728;26;20595;-87
2024/04/08 09:42:51;;;;;;;6.38;2.13;;;18.90;99.90;;;;;;5457495;26;20687;-87
2024/04/08 09:45:19;;;;;;;8.80;2.63;;;18.80;99.90;;;;;;5457984;26;20225;-87
2024/04/08 09:47:45;;;;;;;7.22;2.33;;;18.70;99.90;;;;;;5458105;26;20561;-86
2024/04/08 09:50:12;;;;;;;5.35;2.17;;;18.80;99.90;;;;;;5489876;26;20213;-88
2024/04/08 09:52:39;;;;;;;5.93;2.40;;;18.90;99.90;;;;;;5490149;26;20217;-87
2024/04/08 09:55:08;;;;;;;10.52;2.40;;;19.10;99.90;;;;;;5490104;26;20260;-87
2024/04/08 09:57:41;;;;;;;5.78;2.45;;;19.10;99.90;;;;;;5456805;26;20244;-86
2024/04/08 10:00:14;;;;;;;7.07;2.63;;;19.20;99.90;;;;;;5458245;26;20232;-87
2024/04/08 10:02:43;;;;;;;7.35;2.65;;;19.20;99.90;;;;;;5491573;26;20605;-88
2024/04/08 10:05:12;;;;;;;6.68;2.67;;;19.30;99.90;;;;;;5556245;25;20725;-87
2024/04/08 10:07:39;;;;;;;4.68;2.60;;;19.40;99.90;;;;;;5556315;25;20307;-88
2024/04/08 10:10:07;;;;;;;7.55;2.70;;;19.50;99.90;;;;;;5526667;26;20224;-87
2024/04/08 10:12:34;;;;;;;8.40;2.55;;;19.60;99.90;;;;;;5494717;26;20223;-87
2024/04/08 10:15:16;;;;;;;5.75;1.92;;;19.70;99.90;;;;;;5495645;26;20228;-87
2024/04/08 10:17:46;;;;;;;5.32;2.33;;;19.70;99.90;;;;;;5498160;26;20323;-88
2024/04/08 10:20:16;;;;;;;3.95;1.92;;;19.80;99.90;;;;;;5530494;26;20216;-87
2024/04/08 10:22:44;;;;;;;8.07;2.17;;;19.80;99.90;;;;;;5530974;26;20267;-88
2024/04/08 10:25:40;;;;;;;5.75;1.83;;;20.00;99.90;;;;;;5559936;25;20220;-88
2024/04/08 10:28:09;;;;;;;10.70;2.05;;;20.10;99.90;;;;;;5498109;26;20660;-87
2024/04/08 10:30:37;;;;;;;8.68;2.15;;;20.30;99.90;;;;;;5530141;26;20285;-87
2024/04/08 10:33:10;;;;;;;6.18;2.60;;;20.30;99.90;;;;;;5490953;26;20280;-87
2024/04/08 10:35:36;;;;;;;7.78;1.92;;;20.40;99.90;;;;;;5461026;26;20229;-88
2024/04/08 10:38:02;;;;;;;7.60;1.80;;;20.40;99.90;;;;;;5461353;26;20324;-88
2024/04/08 10:40:28;;;;;;;7.88;2.20;;;20.60;99.90;;;;;;5461458;26;20551;-88
2024/04/08 10:42:55;;;;;;;6.20;2.35;;;20.70;99.90;;;;;;5461461;26;20285;-87
2024/04/08 10:45:21;;;;;;;4.72;1.92;;;20.70;99.90;;;;;;5492893;26;20688;-88
2024/04/08 10:47:47;;;;;;;6.20;1.98;;;20.60;99.90;;;;;;5493132;26;20346;-88
2024/04/08 10:50:13;;;;;;;7.45;2.10;;;20.80;99.90;;;;;;5460760;26;20627;-86
2024/04/08 10:52:40;;;;;;;10.18;2.20;;;20.80;99.90;;;;;;5461227;26;20228;-88
2024/04/08 10:55:08;;;;;;;7.80;2.17;;;20.90;99.90;;;;;;5492924;26;20225;-88
2024/04/08 10:57:34;;;;;;;4.20;1.73;;;21.00;99.90;;;;;;5460896;26;20229;-88
2024/04/08 11:00:02;;;;;;;8.60;2.17;;;21.10;99.90;;;;;;5492896;26;20225;-87
2024/04/08 11:02:28;;;;;;;8.70;2.03;;;21.20;99.90;;;;;;5492952;26;20225;-85
2024/04/08 11:04:54;;;;;;;5.65;2.20;;;21.30;99.90;;;;;;5495419;26;20675;-88
2024/04/08 11:07:20;;;;;;;8.02;2.28;;;21.50;99.90;;;;;;5529782;26;20754;-86
2024/04/08 11:09:47;;;;;;;6.38;2.05;;;21.50;99.90;;;;;;5559011;25;20223;-87
2024/04/08 11:12:16;;;;;;;8.27;2.42;;;21.50;99.90;;;;;;5529902;26;20287;-86
2024/04/08 11:14:46;;;;;;;8.93;2.42;;;21.60;99.90;;;;;;5496149;26;21125;-89
2024/04/08 11:17:15;;;;;;;8.75;2.20;;;21.80;99.90;;;;;;5529787;26;20336;-87
2024/04/08 11:19:43;;;;;;;8.32;2.25;;;22.00;99.90;;;;;;5529582;26;20263;-89
2024/04/08 11:22:10;;;;;;;8.35;2.15;;;22.20;99.90;;;;;;5496978;26;20323;-87
2024/04/08 11:24:43;;;;;;;6.68;1.77;;;22.30;99.90;;;;;;5497019;26;20224;-88
2024/04/08 11:27:09;;;;;;;6.60;2.03;;;22.40;99.90;;;;;;5496132;26;20246;-89
2024/04/08 11:29:35;;;;;;;7.47;2.08;;;22.40;99.90;;;;;;5496897;26;20240;-88
2024/04/08 11:32:01;;;;;;;9.10;2.30;;;22.50;99.90;;;;;;5529406;26;20216;-89
2024/04/08 11:34:28;;;;;;;7.57;2.38;;;22.50;99.90;;;;;;5500659;26;20254;-89
2024/04/08 11:36:54;;;;;;;5.25;2.10;;;22.60;99.90;;;;;;5492184;26;20545;-88
2024/04/08 11:39:19;;;;;;;14.27;2.42;;;22.60;99.90;;;;;;5492501;26;20267;-88
2024/04/08 11:41:45;;;;;;;8.60;2.47;;;22.70;99.90;;;;;;5492567;26;20213;-90
2024/04/08 11:44:12;;;;;;;8.15;2.42;;;22.80;99.90;;;;;;5492605;26;20221;-88
2024/04/08 11:46:37;;;;;;;12.43;2.38;;;22.90;99.90;;;;;;5460691;26;20220;-87
2024/04/08 11:49:03;;;;;;;5.07;1.98;;;22.90;99.90;;;;;;5492504;26;20217;-88
2024/04/08 11:51:29;;;;;;;8.00;2.13;;;22.90;99.90;;;;;;5492872;26;20541;-95
2024/04/08 11:53:54;;;;;;;6.75;2.17;;;23.00;99.90;;;;;;5485400;26;20242;-95
2024/04/08 11:56:20;;;;;;;8.00;2.42;;;23.10;99.90;;;;;;5493554;26;20547;-92
2024/04/08 11:58:46;;;;;;;9.63;1.90;;;23.00;99.90;;;;;;5493669;26;20577;-94
2024/04/08 12:01:12;;;;;;;8.82;3.00;;;23.10;99.90;;;;;;5493159;26;20212;-89
2024/04/08 12:03:38;;;;;;;12.23;2.70;;;23.20;99.90;;;;;;5510005;26;20262;-94
2024/04/08 12:06:04;;;;;;;8.88;2.25;;;23.20;99.90;;;;;;5531344;26;20215;-92
2024/04/08 12:08:32;;;;;;;7.40;2.40;;;23.20;99.90;;;;;;5501661;26;20221;-91
2024/04/08 12:10:58;;;;;;;7.13;2.05;;;23.20;99.90;;;;;;5492676;26;20234;-90
2024/04/08 12:13:25;;;;;;;8.75;2.13;;;23.30;99.90;;;;;;5461194;26;20312;-91
2024/04/08 12:15:51;;;;;;;6.60;2.05;;;23.40;99.90;;;;;;5479183;26;20282;-90
2024/04/08 12:18:17;;;;;;;6.43;2.30;;;23.50;99.90;;;;;;5534897;26;20216;-87
2024/04/08 12:20:43;;;;;;;9.23;1.75;;;23.60;99.90;;;;;;5560347;25;20710;-90
2024/04/08 12:23:11;;;;;;;7.05;2.13;;;23.60;99.90;;;;;;5530019;26;20220;-92
2024/04/08 12:25:39;;;;;;;9.10;2.08;;;23.70;99.90;;;;;;5489552;26;20890;-94
2024/04/08 12:28:07;;;;;;;6.00;1.80;;;23.80;99.90;;;;;;5461136;26;20265;-93
2024/04/08 12:30:33;;;;;;;5.40;1.85;;;23.70;99.90;;;;;;5458428;26;20249;-90
2024/04/08 12:32:59;;;;;;;8.70;1.92;;;23.70;99.90;;;;;;5492573;26;20272;-91
2024/04/08 12:35:31;;;;;;;6.95;2.40;;;23.50;99.90;;;;;;5463439;26;20225;-92
2024/04/08 12:37:57;;;;;;;7.47;1.98;;;23.50;99.90;;;;;;5493899;26;20228;-94
2024/04/08 12:40:23;;;;;;;7.60;1.73;;;23.50;99.90;;;;;;5492482;26;20236;-88
2024/04/08 12:42:49;;;;;;;6.88;1.95;;;23.50;99.90;;;;;;5458312;26;20267;-87
2024/04/08 12:45:15;;;;;;;10.85;2.50;;;23.50;99.90;;;;;;5459420;26;20228;-87